createdAt,value
2023-03-17T00:00:27.913Z,77.11
2023-03-17T00:01:27.874Z,77.11
2023-03-17T00:02:27.917Z,77.22
2023-03-17T00:03:27.899Z,77.11
2023-03-17T00:04:27.843Z,77.01
2023-03-17T00:05:27.823Z,76.90
2023-03-17T00:06:27.816Z,76.81
2023-03-17T00:07:27.803Z,76.70
2023-03-17T00:08:27.816Z,76.70
2023-03-17T00:09:27.783Z,76.70
2023-03-17T00:10:27.806Z,76.60
2023-03-17T00:11:27.758Z,76.70
2023-03-17T00:12:27.762Z,76.60
2023-03-17T00:13:27.761Z,76.50
2023-03-17T00:14:27.733Z,76.39
2023-03-17T00:15:27.720Z,76.29
2023-03-17T00:16:27.713Z,76.29
2023-03-17T00:17:27.700Z,76.29
2023-03-17T00:18:27.708Z,76.29
2023-03-17T00:19:27.670Z,76.50
2023-03-17T00:20:28.180Z,76.60
2023-03-17T00:21:27.659Z,76.70
2023-03-17T00:22:27.638Z,76.70
2023-03-17T00:23:27.645Z,76.60
2023-03-17T00:24:27.663Z,76.70
2023-03-17T00:25:27.609Z,76.81
2023-03-17T00:26:27.613Z,77.01
2023-03-17T00:27:27.590Z,77.11
2023-03-17T00:28:27.620Z,77.01
2023-03-17T00:29:27.552Z,77.01
2023-03-17T00:30:27.574Z,76.90
2023-03-17T00:31:27.594Z,76.90
2023-03-17T00:32:27.593Z,77.01
2023-03-17T00:33:27.510Z,77.01
2023-03-17T00:34:27.541Z,77.01
2023-03-17T00:35:27.493Z,76.90
2023-03-17T00:36:27.495Z,76.90
2023-03-17T00:37:27.478Z,77.01
2023-03-17T00:38:27.458Z,76.90
2023-03-17T00:39:27.462Z,76.81
2023-03-17T00:40:27.447Z,76.81
2023-03-17T00:41:27.446Z,76.81
2023-03-17T00:42:27.423Z,76.90
2023-03-17T00:43:28.774Z,77.11
2023-03-17T00:44:27.426Z,77.11
2023-03-17T00:45:27.372Z,77.11
2023-03-17T00:46:27.391Z,77.01
2023-03-17T00:47:27.356Z,76.90
2023-03-17T00:48:27.339Z,76.90
2023-03-17T00:49:27.352Z,77.01
2023-03-17T00:50:27.719Z,77.11
2023-03-17T00:51:27.307Z,77.22
2023-03-17T00:52:27.306Z,77.18
2023-03-17T00:53:27.289Z,76.98
2023-03-17T00:54:27.297Z,76.98
2023-03-17T00:55:27.254Z,76.77
2023-03-17T00:56:27.270Z,76.77
2023-03-17T00:57:27.244Z,76.56
2023-03-17T00:58:27.231Z,76.46
2023-03-17T00:59:27.242Z,76.56
2023-03-17T01:00:27.206Z,76.46
2023-03-17T01:01:27.193Z,76.35
2023-03-17T01:02:27.351Z,76.25
2023-03-17T01:03:27.173Z,76.15
2023-03-17T01:04:27.199Z,76.15
2023-03-17T01:05:27.159Z,76.04
2023-03-17T01:06:27.138Z,75.95
2023-03-17T01:07:27.124Z,75.95
2023-03-17T01:08:27.112Z,75.95
2023-03-17T01:09:27.137Z,75.95
2023-03-17T01:10:27.139Z,75.95
2023-03-17T01:11:27.076Z,75.84
2023-03-17T01:12:27.083Z,75.74
2023-03-17T01:13:27.059Z,75.63
2023-03-17T01:14:27.077Z,75.63
2023-03-17T01:15:27.030Z,75.53
2023-03-17T01:16:27.147Z,75.43
2023-03-17T01:17:27.032Z,75.43
2023-03-17T01:18:27.046Z,75.60
2023-03-17T01:19:27.015Z,75.60
2023-03-17T01:20:27.048Z,75.49
2023-03-17T01:21:26.971Z,75.49
2023-03-17T01:22:26.961Z,75.49
2023-03-17T01:23:26.967Z,75.39
2023-03-17T01:24:26.954Z,75.39
2023-03-17T01:25:26.950Z,75.29
2023-03-17T01:26:26.916Z,75.18
2023-03-17T01:27:26.898Z,75.09
2023-03-17T01:28:26.891Z,75.09
2023-03-17T01:29:26.907Z,74.98
2023-03-17T01:30:26.891Z,74.88
2023-03-17T01:31:26.909Z,74.88
2023-03-17T01:32:26.905Z,74.77
2023-03-17T01:33:26.835Z,74.77
2023-03-17T01:34:26.856Z,74.77
2023-03-17T01:35:26.836Z,74.77
2023-03-17T01:36:26.804Z,74.77
2023-03-17T01:37:26.792Z,74.77
2023-03-17T01:38:26.823Z,74.67
2023-03-17T01:39:26.763Z,74.57
2023-03-17T01:40:26.756Z,74.67
2023-03-17T01:41:26.770Z,74.57
2023-03-17T01:42:26.744Z,74.57
2023-03-17T01:43:26.720Z,74.77
2023-03-17T01:44:26.745Z,74.77
2023-03-17T01:45:26.713Z,74.77
2023-03-17T01:46:26.690Z,74.57
2023-03-17T01:47:26.676Z,74.46
2023-03-17T01:48:26.676Z,74.46
2023-03-17T01:49:26.651Z,74.46
2023-03-17T01:50:26.695Z,74.57
2023-03-17T01:51:26.650Z,74.60
2023-03-17T01:52:26.624Z,74.50
2023-03-17T01:53:26.613Z,74.50
2023-03-17T01:54:26.601Z,74.50
2023-03-17T01:55:26.585Z,74.60
2023-03-17T01:56:26.600Z,74.71
2023-03-17T01:57:26.560Z,74.81
2023-03-17T01:58:26.572Z,74.91
2023-03-17T01:59:26.538Z,74.91
2023-03-17T02:00:26.617Z,74.91
2023-03-17T02:01:26.611Z,74.91
2023-03-17T02:02:26.613Z,74.91
2023-03-17T02:03:26.534Z,74.91
2023-03-17T02:04:26.543Z,74.91
2023-03-17T02:05:26.480Z,75.12
2023-03-17T02:06:26.470Z,75.12
2023-03-17T02:07:26.477Z,75.01
2023-03-17T02:08:26.468Z,74.91
2023-03-17T02:09:26.436Z,75.05
2023-03-17T02:10:26.420Z,75.15
2023-03-17T02:11:26.414Z,75.26
2023-03-17T02:12:26.399Z,75.15
2023-03-17T02:13:26.394Z,75.36
2023-03-17T02:14:26.403Z,75.46
2023-03-17T02:15:26.363Z,75.67
2023-03-17T02:16:26.378Z,75.77
2023-03-17T02:17:26.363Z,75.77
2023-03-17T02:18:26.333Z,75.77
2023-03-17T02:19:26.320Z,75.67
2023-03-17T02:20:26.336Z,75.57
2023-03-17T02:21:26.295Z,75.57
2023-03-17T02:22:26.290Z,75.57
2023-03-17T02:23:26.288Z,75.46
2023-03-17T02:24:26.269Z,75.36
2023-03-17T02:25:26.249Z,75.36
2023-03-17T02:26:26.265Z,75.26
2023-03-17T02:27:26.224Z,75.46
2023-03-17T02:28:26.228Z,75.46
2023-03-17T02:29:26.202Z,75.36
2023-03-17T02:30:26.272Z,75.26
2023-03-17T02:31:26.181Z,75.36
2023-03-17T02:32:26.405Z,75.36
2023-03-17T02:33:26.154Z,75.36
2023-03-17T02:34:26.154Z,75.36
2023-03-17T02:35:26.139Z,75.39
2023-03-17T02:36:26.149Z,75.39
2023-03-17T02:37:26.127Z,75.29
2023-03-17T02:38:26.130Z,75.29
2023-03-17T02:39:26.093Z,75.39
2023-03-17T02:40:26.091Z,75.39
2023-03-17T02:41:26.066Z,75.49
2023-03-17T02:42:26.064Z,75.60
2023-03-17T02:43:26.071Z,75.70
2023-03-17T02:44:26.071Z,75.60
2023-03-17T02:45:26.034Z,75.60
2023-03-17T02:46:26.159Z,75.60
2023-03-17T02:47:26.008Z,75.60
2023-03-17T02:48:25.996Z,75.91
2023-03-17T02:49:26.001Z,75.91
2023-03-17T02:50:26.009Z,75.91
2023-03-17T02:51:25.962Z,76.12
2023-03-17T02:52:25.963Z,76.22
2023-03-17T02:53:25.935Z,76.26
2023-03-17T02:54:25.938Z,76.26
2023-03-17T02:55:25.919Z,76.26
2023-03-17T02:56:25.933Z,76.26
2023-03-17T02:57:25.889Z,76.36
2023-03-17T02:58:25.893Z,76.77
2023-03-17T02:59:25.872Z,76.77
2023-03-17T03:00:25.859Z,76.77
2023-03-17T03:01:25.886Z,76.87
2023-03-17T03:02:25.910Z,76.77
2023-03-17T03:03:25.826Z,76.98
2023-03-17T03:04:25.853Z,76.87
2023-03-17T03:05:25.820Z,76.87
2023-03-17T03:06:25.790Z,76.87
2023-03-17T03:07:25.792Z,76.77
2023-03-17T03:08:25.798Z,76.77
2023-03-17T03:09:25.767Z,76.67
2023-03-17T03:10:25.758Z,76.77
2023-03-17T03:11:25.727Z,76.87
2023-03-17T03:12:25.726Z,76.87
2023-03-17T03:13:25.714Z,76.87
2023-03-17T03:14:25.734Z,76.98
2023-03-17T03:15:25.692Z,77.08
2023-03-17T03:16:25.677Z,77.08
2023-03-17T03:17:25.690Z,77.19
2023-03-17T03:18:25.659Z,77.08
2023-03-17T03:19:25.647Z,77.08
2023-03-17T03:20:27.440Z,77.08
2023-03-17T03:21:25.631Z,76.98
2023-03-17T03:22:25.634Z,76.87
2023-03-17T03:23:25.616Z,76.87
2023-03-17T03:24:25.594Z,76.87
2023-03-17T03:25:25.583Z,76.77
2023-03-17T03:26:25.566Z,76.87
2023-03-17T03:27:25.592Z,76.98
2023-03-17T03:28:25.556Z,77.08
2023-03-17T03:29:25.544Z,77.08
2023-03-17T03:30:25.546Z,76.98
2023-03-17T03:31:25.528Z,76.98
2023-03-17T03:32:25.579Z,76.87
2023-03-17T03:33:25.517Z,76.77
2023-03-17T03:34:25.475Z,76.77
2023-03-17T03:35:25.482Z,76.91
2023-03-17T03:36:25.467Z,76.91
2023-03-17T03:37:25.473Z,76.91
2023-03-17T03:38:25.429Z,77.01
2023-03-17T03:39:25.430Z,77.01
2023-03-17T03:40:25.412Z,77.12
2023-03-17T03:41:25.408Z,77.33
2023-03-17T03:42:25.414Z,77.43
2023-03-17T03:43:25.385Z,77.64
2023-03-17T03:44:25.401Z,77.64
2023-03-17T03:45:25.358Z,77.53
2023-03-17T03:46:25.392Z,77.53
2023-03-17T03:47:25.354Z,77.43
2023-03-17T03:48:25.314Z,77.33
2023-03-17T03:49:25.314Z,77.22
2023-03-17T03:50:25.296Z,77.12
2023-03-17T03:51:25.288Z,77.53
2023-03-17T03:52:25.292Z,77.64
2023-03-17T03:53:25.274Z,77.64
2023-03-17T03:54:25.255Z,77.53
2023-03-17T03:55:25.245Z,77.43
2023-03-17T03:56:25.224Z,77.43
2023-03-17T03:57:25.246Z,77.64
2023-03-17T03:58:25.199Z,77.53
2023-03-17T03:59:25.193Z,77.84
2023-03-17T04:00:25.181Z,77.84
2023-03-17T04:01:25.173Z,77.84
2023-03-17T04:02:25.211Z,77.84
2023-03-17T04:03:25.159Z,77.74
2023-03-17T04:04:25.148Z,77.84
2023-03-17T04:05:25.126Z,77.74
2023-03-17T04:06:25.114Z,77.74
2023-03-17T04:07:25.126Z,77.74
2023-03-17T04:08:25.092Z,77.74
2023-03-17T04:09:25.100Z,77.74
2023-03-17T04:10:25.071Z,77.74
2023-03-17T04:11:25.068Z,77.64
2023-03-17T04:12:25.069Z,77.64
2023-03-17T04:13:25.035Z,77.64
2023-03-17T04:14:25.017Z,77.56
2023-03-17T04:15:25.025Z,77.56
2023-03-17T04:16:25.066Z,77.77
2023-03-17T04:17:25.017Z,77.77
2023-03-17T04:18:24.980Z,77.77
2023-03-17T04:19:24.972Z,77.87
2023-03-17T04:20:24.947Z,77.98
2023-03-17T04:21:24.960Z,78.08
2023-03-17T04:22:24.959Z,77.98
2023-03-17T04:23:24.941Z,77.98
2023-03-17T04:24:24.907Z,78.08
2023-03-17T04:25:24.904Z,78.39
2023-03-17T04:26:24.887Z,78.50
2023-03-17T04:27:24.899Z,78.39
2023-03-17T04:28:24.867Z,78.39
2023-03-17T04:29:24.858Z,78.50
2023-03-17T04:30:24.843Z,78.64
2023-03-17T04:31:24.848Z,78.64
2023-03-17T04:32:26.995Z,78.53
2023-03-17T04:33:24.808Z,78.64
2023-03-17T04:34:24.797Z,78.74
2023-03-17T04:35:24.812Z,78.74
2023-03-17T04:36:24.788Z,78.53
2023-03-17T04:37:24.787Z,78.64
2023-03-17T04:38:24.772Z,78.64
2023-03-17T04:39:24.746Z,78.85
2023-03-17T04:40:24.732Z,79.16
2023-03-17T04:41:24.726Z,79.16
2023-03-17T04:42:24.726Z,79.26
2023-03-17T04:43:24.707Z,79.16
2023-03-17T04:44:24.680Z,79.26
2023-03-17T04:45:24.774Z,79.26
2023-03-17T04:46:24.677Z,79.26
2023-03-17T04:47:24.686Z,79.26
2023-03-17T04:48:24.635Z,79.47
2023-03-17T04:49:24.670Z,79.77
2023-03-17T04:50:24.611Z,79.67
2023-03-17T04:51:24.601Z,79.67
2023-03-17T04:52:24.623Z,79.67
2023-03-17T04:53:24.587Z,79.57
2023-03-17T04:54:24.574Z,79.36
2023-03-17T04:55:24.591Z,79.47
2023-03-17T04:56:24.560Z,79.88
2023-03-17T04:57:24.615Z,79.98
2023-03-17T04:58:30.783Z,79.98
2023-03-17T04:59:24.535Z,79.77
2023-03-17T05:00:24.496Z,79.67
2023-03-17T05:01:24.592Z,79.67
2023-03-17T05:02:24.552Z,79.57
2023-03-17T05:03:27.613Z,79.43
2023-03-17T05:04:31.625Z,79.26
2023-03-17T05:05:24.451Z,79.26
2023-03-17T05:06:24.436Z,79.57
2023-03-17T05:07:24.462Z,79.57
2023-03-17T05:08:24.413Z,79.57
2023-03-17T05:09:24.399Z,79.47
2023-03-17T05:10:24.384Z,79.36
2023-03-17T05:11:24.383Z,79.53
2023-03-17T05:12:24.361Z,79.43
2023-03-17T05:13:24.393Z,79.22
2023-03-17T05:14:24.344Z,79.22
2023-03-17T05:15:24.334Z,79.16
2023-03-17T05:16:24.455Z,79.22
2023-03-17T05:17:24.325Z,79.22
2023-03-17T05:18:24.324Z,79.22
2023-03-17T05:19:24.294Z,79.22
2023-03-17T05:20:24.274Z,79.22
2023-03-17T05:21:24.297Z,79.12
2023-03-17T05:22:24.258Z,79.05
2023-03-17T05:23:24.264Z,79.02
2023-03-17T05:24:24.239Z,79.05
2023-03-17T05:25:24.221Z,79.16
2023-03-17T05:26:24.203Z,79.05
2023-03-17T05:27:24.213Z,78.95
2023-03-17T05:28:24.204Z,78.85
2023-03-17T05:29:24.179Z,78.95
2023-03-17T05:30:24.175Z,79.05
2023-03-17T05:31:24.221Z,79.16
2023-03-17T05:32:24.134Z,79.26
2023-03-17T05:33:24.156Z,79.26
2023-03-17T05:34:24.119Z,79.36
2023-03-17T05:35:24.107Z,79.47
2023-03-17T05:36:24.104Z,79.26
2023-03-17T05:37:24.088Z,79.36
2023-03-17T05:38:24.092Z,79.36
2023-03-17T05:39:24.064Z,79.36
2023-03-17T05:40:24.085Z,79.47
2023-03-17T05:41:24.044Z,79.57
2023-03-17T05:42:24.036Z,79.57
2023-03-17T05:43:24.045Z,79.57
2023-03-17T05:44:24.028Z,79.36
2023-03-17T05:45:24.003Z,79.26
2023-03-17T05:46:24.052Z,79.26
2023-03-17T05:47:23.978Z,79.16
2023-03-17T05:48:23.972Z,79.16
2023-03-17T05:49:23.949Z,79.16
2023-03-17T05:50:23.942Z,79.16
2023-03-17T05:51:23.934Z,79.36
2023-03-17T05:52:23.919Z,79.57
2023-03-17T05:53:23.925Z,79.57
2023-03-17T05:54:23.882Z,79.47
2023-03-17T05:55:23.900Z,79.57
2023-03-17T05:56:23.883Z,79.47
2023-03-17T05:57:23.865Z,79.47
2023-03-17T05:58:23.875Z,79.47
2023-03-17T05:59:23.838Z,79.47
2023-03-17T06:00:23.822Z,79.47
2023-03-17T06:01:23.812Z,79.47
2023-03-17T06:02:23.895Z,79.36
2023-03-17T06:03:23.869Z,79.36
2023-03-17T06:04:23.795Z,79.47
2023-03-17T06:05:23.790Z,79.47
2023-03-17T06:06:23.766Z,79.47
2023-03-17T06:07:23.764Z,79.36
2023-03-17T06:08:23.749Z,79.26
2023-03-17T06:09:23.725Z,79.16
2023-03-17T06:10:23.724Z,79.16
2023-03-17T06:11:23.700Z,79.05
2023-03-17T06:12:23.693Z,78.95
2023-03-17T06:13:23.698Z,79.05
2023-03-17T06:14:25.423Z,79.16
2023-03-17T06:15:23.656Z,79.26
2023-03-17T06:16:23.763Z,79.26
2023-03-17T06:17:23.658Z,79.26
2023-03-17T06:18:23.637Z,79.16
2023-03-17T06:19:23.613Z,79.26
2023-03-17T06:20:23.604Z,79.16
2023-03-17T06:21:23.655Z,79.26
2023-03-17T06:22:23.572Z,79.26
2023-03-17T06:23:23.617Z,79.36
2023-03-17T06:24:23.554Z,79.36
2023-03-17T06:25:23.545Z,79.33
2023-03-17T06:26:23.540Z,79.22
2023-03-17T06:27:23.515Z,79.33
2023-03-17T06:28:23.524Z,79.22
2023-03-17T06:29:23.516Z,79.02
2023-03-17T06:30:23.497Z,79.02
2023-03-17T06:31:23.524Z,79.12
2023-03-17T06:32:23.463Z,79.12
2023-03-17T06:33:23.468Z,79.08
2023-03-17T06:34:23.433Z,78.88
2023-03-17T06:35:23.462Z,78.67
2023-03-17T06:36:23.437Z,78.67
2023-03-17T06:37:23.411Z,78.67
2023-03-17T06:38:23.415Z,78.36
2023-03-17T06:39:23.401Z,78.15
2023-03-17T06:40:23.365Z,78.05
2023-03-17T06:41:23.359Z,78.05
2023-03-17T06:42:23.411Z,78.05
2023-03-17T06:43:23.355Z,77.91
2023-03-17T06:44:23.323Z,78.01
2023-03-17T06:45:23.318Z,77.91
2023-03-17T06:46:23.340Z,77.91
2023-03-17T06:47:25.910Z,77.81
2023-03-17T06:48:23.312Z,77.70
2023-03-17T06:49:23.274Z,77.56
2023-03-17T06:50:23.250Z,77.36
2023-03-17T06:51:23.286Z,77.36
2023-03-17T06:52:23.264Z,77.15
2023-03-17T06:53:23.309Z,77.01
2023-03-17T06:54:23.213Z,77.01
2023-03-17T06:55:23.211Z,76.81
2023-03-17T06:56:29.759Z,76.77
2023-03-17T06:57:23.188Z,76.87
2023-03-17T06:58:23.215Z,76.67
2023-03-17T06:59:23.160Z,76.46
2023-03-17T07:00:23.143Z,76.35
2023-03-17T07:01:23.210Z,76.12
2023-03-17T07:02:23.188Z,76.12
2023-03-17T07:03:23.131Z,75.81
2023-03-17T07:04:23.194Z,75.60
2023-03-17T07:05:23.090Z,75.46
2023-03-17T07:06:23.072Z,75.26
2023-03-17T07:07:23.085Z,75.15
2023-03-17T07:08:23.088Z,74.95
2023-03-17T07:09:23.102Z,74.91
2023-03-17T07:10:23.066Z,74.80
2023-03-17T07:11:23.037Z,74.50
2023-03-17T07:12:23.005Z,74.16
2023-03-17T07:13:23.004Z,73.74
2023-03-17T07:14:22.997Z,73.54
2023-03-17T07:15:22.974Z,73.30
2023-03-17T07:16:23.049Z,73.09
2023-03-17T07:17:22.965Z,72.88
2023-03-17T07:18:23.044Z,72.64
2023-03-17T07:19:22.972Z,72.64
2023-03-17T07:20:22.991Z,72.24
2023-03-17T07:21:22.939Z,72.24
2023-03-17T07:22:23.020Z,71.92
2023-03-17T07:23:23.106Z,71.58
2023-03-17T07:24:22.930Z,71.37
2023-03-17T07:25:22.925Z,71.17
2023-03-17T07:26:22.941Z,71.07
2023-03-17T07:27:23.264Z,70.97
2023-03-17T07:28:22.900Z,70.94
2023-03-17T07:29:22.867Z,70.73
2023-03-17T07:30:22.874Z,70.62
2023-03-17T07:31:22.848Z,70.39
2023-03-17T07:32:22.853Z,70.18
2023-03-17T07:33:22.853Z,69.98
2023-03-17T07:34:22.789Z,69.74
2023-03-17T07:35:22.816Z,69.43
2023-03-17T07:36:22.796Z,69.43
2023-03-17T07:37:22.718Z,69.09
2023-03-17T07:38:22.804Z,68.68
2023-03-17T07:39:22.715Z,68.57
2023-03-17T07:40:22.686Z,68.37
2023-03-17T07:41:22.688Z,68.34
2023-03-17T07:42:22.718Z,68.13
2023-03-17T07:43:22.685Z,68.34
2023-03-17T07:44:22.658Z,67.93
2023-03-17T07:45:22.647Z,67.72
2023-03-17T07:46:22.706Z,67.59
2023-03-17T07:47:22.605Z,67.08
2023-03-17T07:48:22.630Z,66.25
2023-03-17T07:49:34.273Z,66.05
2023-03-17T07:50:22.608Z,66.25
2023-03-17T07:51:22.561Z,66.25
2023-03-17T07:52:22.567Z,66.02
2023-03-17T07:53:22.559Z,66.12
2023-03-17T07:54:22.534Z,66.02
2023-03-17T07:55:22.523Z,65.41
2023-03-17T07:56:22.509Z,65.37
2023-03-17T07:57:22.577Z,65.68
2023-03-17T07:58:22.516Z,65.17
2023-03-17T07:59:22.469Z,65.07
2023-03-17T08:00:22.464Z,64.73
2023-03-17T08:01:22.449Z,64.83
2023-03-17T08:02:22.458Z,64.73
2023-03-17T08:03:22.484Z,64.53
2023-03-17T08:04:22.419Z,64.22
2023-03-17T08:05:22.462Z,64.29
2023-03-17T08:06:22.415Z,63.88
2023-03-17T08:07:22.425Z,63.17
2023-03-17T08:08:22.403Z,63.78
2023-03-17T08:09:22.367Z,64.06
2023-03-17T08:10:22.360Z,64.06
2023-03-17T08:11:22.336Z,63.92
2023-03-17T08:12:22.335Z,64.13
2023-03-17T08:13:22.357Z,64.33
2023-03-17T08:14:22.307Z,63.82
2023-03-17T08:15:22.318Z,64.13
2023-03-17T08:16:22.318Z,63.18
2023-03-17T08:17:22.308Z,63.28
2023-03-17T08:18:22.284Z,63.69
2023-03-17T08:19:22.244Z,63.25
2023-03-17T08:20:22.310Z,61.92
2023-03-17T08:21:22.235Z,62.54
2023-03-17T08:22:22.212Z,62.66
2023-03-17T08:23:22.249Z,62.57
2023-03-17T08:24:22.220Z,62.46
2023-03-17T08:25:22.206Z,62.36
2023-03-17T08:26:22.172Z,62.43
2023-03-17T08:27:22.205Z,62.74
2023-03-17T08:28:22.182Z,62.51
2023-03-17T08:29:22.133Z,62.40
2023-03-17T08:30:22.136Z,62.40
2023-03-17T08:31:22.284Z,61.99
2023-03-17T08:32:22.127Z,61.28
2023-03-17T08:33:22.184Z,61.38
2023-03-17T08:34:22.078Z,62.17
2023-03-17T08:35:22.110Z,61.87
2023-03-17T08:36:22.071Z,61.15
2023-03-17T08:37:22.063Z,61.35
2023-03-17T08:38:22.061Z,61.76
2023-03-17T08:39:22.044Z,61.94
2023-03-17T08:40:22.010Z,61.94
2023-03-17T08:41:22.018Z,61.91
2023-03-17T08:42:21.988Z,61.91
2023-03-17T08:43:22.004Z,62.11
2023-03-17T08:44:21.974Z,62.18
2023-03-17T08:45:21.951Z,61.47
2023-03-17T08:46:22.020Z,61.54
2023-03-17T08:47:21.963Z,61.44
2023-03-17T08:48:21.955Z,60.83
2023-03-17T08:49:21.942Z,60.19
2023-03-17T08:50:21.914Z,59.10
2023-03-17T08:51:24.368Z,59.58
2023-03-17T08:52:21.887Z,59.78
2023-03-17T08:53:21.876Z,59.75
2023-03-17T08:54:21.848Z,59.86
2023-03-17T08:55:21.853Z,59.01
2023-03-17T08:56:21.825Z,58.81
2023-03-17T08:57:21.817Z,58.44
2023-03-17T08:58:21.845Z,58.92
2023-03-17T08:59:21.797Z,59.01
2023-03-17T09:00:21.796Z,58.99
2023-03-17T09:01:21.805Z,59.19
2023-03-17T09:02:21.806Z,57.97
2023-03-17T09:03:21.764Z,58.04
2023-03-17T09:04:21.748Z,58.04
2023-03-17T09:05:21.716Z,58.45
2023-03-17T09:06:21.731Z,58.04
2023-03-17T09:07:21.707Z,58.56
2023-03-17T09:08:21.728Z,58.94
2023-03-17T09:09:21.681Z,58.94
2023-03-17T09:10:21.669Z,59.14
2023-03-17T09:11:21.655Z,57.31
2023-03-17T09:12:21.656Z,57.51
2023-03-17T09:13:21.662Z,57.81
2023-03-17T09:14:21.636Z,57.71
2023-03-17T09:15:21.614Z,57.61
2023-03-17T09:16:21.645Z,57.51
2023-03-17T09:17:21.605Z,57.71
2023-03-17T09:18:22.229Z,57.68
2023-03-17T09:19:21.572Z,58.06
2023-03-17T09:20:21.567Z,58.06
2023-03-17T09:21:21.541Z,57.84
2023-03-17T09:22:21.536Z,58.24
2023-03-17T09:23:21.566Z,57.93
2023-03-17T09:24:21.521Z,58.11
2023-03-17T09:25:21.498Z,57.10
2023-03-17T09:26:21.497Z,56.87
2023-03-17T09:27:21.518Z,56.77
2023-03-17T09:28:21.508Z,56.36
2023-03-17T09:29:21.478Z,55.55
2023-03-17T09:30:21.452Z,55.07
2023-03-17T09:31:21.453Z,54.97
2023-03-17T09:32:21.432Z,55.10
2023-03-17T09:33:21.437Z,56.31
2023-03-17T09:34:21.408Z,55.10
2023-03-17T09:35:21.381Z,55.60
2023-03-17T09:36:21.380Z,56.49
2023-03-17T09:37:21.371Z,56.01
2023-03-17T09:38:21.381Z,56.59
2023-03-17T09:39:21.343Z,55.37
2023-03-17T09:40:21.332Z,55.40
2023-03-17T09:41:21.311Z,55.98
2023-03-17T09:42:21.331Z,55.78
2023-03-17T09:43:21.309Z,55.88
2023-03-17T09:44:21.282Z,56.18
2023-03-17T09:45:21.268Z,56.46
2023-03-17T09:46:21.280Z,56.46
2023-03-17T09:47:21.241Z,55.68
2023-03-17T09:48:21.258Z,54.66
2023-03-17T09:49:21.229Z,55.98
2023-03-17T09:50:21.208Z,55.96
2023-03-17T09:51:21.202Z,54.97
2023-03-17T09:52:21.195Z,55.96
2023-03-17T09:53:21.199Z,56.46
2023-03-17T09:54:21.189Z,56.84
2023-03-17T09:55:21.146Z,56.01
2023-03-17T09:56:21.145Z,54.71
2023-03-17T09:57:21.154Z,56.21
2023-03-17T09:58:21.136Z,55.40
2023-03-17T09:59:21.102Z,55.07
2023-03-17T10:00:21.107Z,54.76
2023-03-17T10:01:21.131Z,55.47
2023-03-17T10:02:21.159Z,54.46
2023-03-17T10:03:21.084Z,54.16
2023-03-17T10:04:21.086Z,53.55
2023-03-17T10:05:21.077Z,53.63
2023-03-17T10:06:21.059Z,55.04
2023-03-17T10:07:21.009Z,54.82
2023-03-17T10:08:30.712Z,54.91
2023-03-17T10:09:20.997Z,54.58
2023-03-17T10:10:20.987Z,53.38
2023-03-17T10:11:20.966Z,53.98
2023-03-17T10:12:20.967Z,54.49
2023-03-17T10:13:20.971Z,53.78
2023-03-17T10:14:20.939Z,54.28
2023-03-17T10:15:21.647Z,54.66
2023-03-17T10:16:20.960Z,53.93
2023-03-17T10:17:20.894Z,54.23
2023-03-17T10:18:20.908Z,52.89
2023-03-17T10:19:20.897Z,52.69
2023-03-17T10:20:20.866Z,53.70
2023-03-17T10:21:20.851Z,51.28
2023-03-17T10:22:20.851Z,52.09
2023-03-17T10:23:20.850Z,50.12
2023-03-17T10:24:20.821Z,50.92
2023-03-17T10:25:20.805Z,52.72
2023-03-17T10:26:20.803Z,52.72
2023-03-17T10:27:20.790Z,52.29
2023-03-17T10:28:20.812Z,51.89
2023-03-17T10:29:20.827Z,52.49
2023-03-17T10:30:20.824Z,52.06
2023-03-17T10:31:20.792Z,51.93
2023-03-17T10:32:20.743Z,51.25
2023-03-17T10:33:20.738Z,51.18
2023-03-17T10:34:20.721Z,49.96
2023-03-17T10:35:20.690Z,50.19
2023-03-17T10:36:20.685Z,51.71
2023-03-17T10:37:20.675Z,52.09
2023-03-17T10:38:20.696Z,51.28
2023-03-17T10:39:20.644Z,51.76
2023-03-17T10:40:20.715Z,52.56
2023-03-17T10:41:20.623Z,50.35
2023-03-17T10:42:20.612Z,50.04
2023-03-17T10:43:20.725Z,49.84
2023-03-17T10:44:20.610Z,49.74
2023-03-17T10:45:20.582Z,51.64
2023-03-17T10:46:20.589Z,51.20
2023-03-17T10:47:20.550Z,50.40
2023-03-17T10:48:20.585Z,51.23
2023-03-17T10:49:20.545Z,51.84
2023-03-17T10:50:20.520Z,50.90
2023-03-17T10:51:20.514Z,50.90
2023-03-17T10:52:20.505Z,50.40
2023-03-17T10:53:20.504Z,50.20
2023-03-17T10:54:20.481Z,50.37
2023-03-17T10:55:20.469Z,49.37
2023-03-17T10:56:20.457Z,52.09
2023-03-17T10:57:20.437Z,49.27
2023-03-17T10:58:20.467Z,51.99
2023-03-17T10:59:20.470Z,50.88
2023-03-17T11:00:20.414Z,49.47
2023-03-17T11:01:20.458Z,49.29
2023-03-17T11:02:20.393Z,50.78
2023-03-17T11:03:20.395Z,49.87
2023-03-17T11:04:20.409Z,49.27
2023-03-17T11:05:20.359Z,49.79
2023-03-17T11:06:20.361Z,50.27
2023-03-17T11:07:20.346Z,51.08
2023-03-17T11:08:20.343Z,50.07
2023-03-17T11:09:20.336Z,49.65
2023-03-17T11:10:20.334Z,50.25
2023-03-17T11:11:21.302Z,49.55
2023-03-17T11:12:20.308Z,50.05
2023-03-17T11:13:20.299Z,50.63
2023-03-17T11:14:20.266Z,50.31
2023-03-17T11:15:20.363Z,47.91
2023-03-17T11:16:20.263Z,50.15
2023-03-17T11:17:20.221Z,50.83
2023-03-17T11:18:20.232Z,49.60
2023-03-17T11:19:20.204Z,49.50
2023-03-17T11:20:20.197Z,49.40
2023-03-17T11:21:20.177Z,47.91
2023-03-17T11:22:20.168Z,49.15
2023-03-17T11:23:20.184Z,49.32
2023-03-17T11:24:20.150Z,50.20
2023-03-17T11:25:20.131Z,49.70
2023-03-17T11:26:20.140Z,49.27
2023-03-17T11:27:20.110Z,48.87
2023-03-17T11:28:20.131Z,49.15
2023-03-17T11:29:20.100Z,49.18
2023-03-17T11:30:20.094Z,49.15
2023-03-17T11:31:20.136Z,51.16
2023-03-17T11:32:20.084Z,48.63
2023-03-17T11:33:20.066Z,48.32
2023-03-17T11:34:20.034Z,48.12
2023-03-17T11:35:20.030Z,49.93
2023-03-17T11:36:20.014Z,49.01
2023-03-17T11:37:19.998Z,49.01
2023-03-17T11:38:20.030Z,46.39
2023-03-17T11:39:19.976Z,48.05
2023-03-17T11:40:19.975Z,49.22
2023-03-17T11:41:19.957Z,47.52
2023-03-17T11:42:19.946Z,47.22
2023-03-17T11:43:19.948Z,46.61
2023-03-17T11:44:19.944Z,48.75
2023-03-17T11:45:19.912Z,48.43
2023-03-17T11:46:19.947Z,49.73
2023-03-17T11:47:19.897Z,47.72
2023-03-17T11:48:19.907Z,47.82
2023-03-17T11:49:19.866Z,48.72
2023-03-17T11:50:19.866Z,48.22
2023-03-17T11:51:19.836Z,49.63
2023-03-17T11:52:19.857Z,50.21
2023-03-17T11:53:19.837Z,48.88
2023-03-17T11:54:19.808Z,48.55
2023-03-17T11:55:19.809Z,48.63
2023-03-17T11:56:19.774Z,49.63
2023-03-17T11:57:19.808Z,49.21
2023-03-17T11:58:19.770Z,46.25
2023-03-17T11:59:19.746Z,48.35
2023-03-17T12:00:19.737Z,46.55
2023-03-17T12:01:19.756Z,47.25
2023-03-17T12:02:19.709Z,46.77
2023-03-17T12:03:19.763Z,47.97
2023-03-17T12:04:19.695Z,47.07
2023-03-17T12:05:19.683Z,49.08
2023-03-17T12:06:19.661Z,50.48
2023-03-17T12:07:19.656Z,48.86
2023-03-17T12:08:19.657Z,48.18
2023-03-17T12:09:19.684Z,48.78
2023-03-17T12:10:19.621Z,46.19
2023-03-17T12:11:19.613Z,47.62
2023-03-17T12:12:19.615Z,48.32
2023-03-17T12:13:19.606Z,50.33
2023-03-17T12:14:19.587Z,48.93
2023-03-17T12:15:19.557Z,47.24
2023-03-17T12:16:19.571Z,46.23
2023-03-17T12:17:19.547Z,47.86
2023-03-17T12:18:19.546Z,47.66
2023-03-17T12:19:19.561Z,47.77
2023-03-17T12:20:19.514Z,48.39
2023-03-17T12:21:19.494Z,50.28
2023-03-17T12:22:19.469Z,49.68
2023-03-17T12:23:19.508Z,50.46
2023-03-17T12:24:19.446Z,49.45
2023-03-17T12:25:19.444Z,49.22
2023-03-17T12:26:19.442Z,50.23
2023-03-17T12:27:19.425Z,49.13
2023-03-17T12:28:19.425Z,50.61
2023-03-17T12:29:19.409Z,48.30
2023-03-17T12:30:19.377Z,48.20
2023-03-17T12:31:19.409Z,49.08
2023-03-17T12:32:19.355Z,49.40
2023-03-17T12:33:19.439Z,47.19
2023-03-17T12:34:19.334Z,48.22
2023-03-17T12:35:19.384Z,48.83
2023-03-17T12:36:19.323Z,47.92
2023-03-17T12:37:19.303Z,48.12
2023-03-17T12:38:19.323Z,49.13
2023-03-17T12:39:19.272Z,48.22
2023-03-17T12:40:19.296Z,48.83
2023-03-17T12:41:19.263Z,47.85
2023-03-17T12:42:19.250Z,48.65
2023-03-17T12:43:19.322Z,49.33
2023-03-17T12:44:19.216Z,50.33
2023-03-17T12:45:19.212Z,49.73
2023-03-17T12:46:19.234Z,48.02
2023-03-17T12:47:19.185Z,48.22
2023-03-17T12:48:19.192Z,47.24
2023-03-17T12:49:19.189Z,47.56
2023-03-17T12:50:19.182Z,48.37
2023-03-17T12:51:19.140Z,48.75
2023-03-17T12:52:19.144Z,49.25